Time;durP1;ratioP1;P1;durP2;ratioP2;P2;SDS_P1;SDS_P2;PMS_P1;PMS_P2;Temp;Humidity;BMP_temperature;BMP_pressure;BME280_temperature;BME280_humidity;BME280_pressure;Samples;Min_cycle;Max_cycle;Signal;HPM_P1;HPM_P2
2022/08/31 00:05:05;;;;;;;4.70;4.40;;;28.10;41.90;;;;;;5067573;28;20461;-47
2022/08/31 00:07:33;;;;;;;5.57;4.53;;;28.10;41.80;;;;;;5069536;28;20446;-48
2022/08/31 00:09:59;;;;;;;5.13;4.63;;;28.00;41.60;;;;;;5076929;28;20453;-47
2022/08/31 00:12:25;;;;;;;9.23;4.57;;;28.10;41.70;;;;;;5075008;28;20461;-47
2022/08/31 00:14:51;;;;;;;5.20;4.80;;;28.10;41.80;;;;;;5075587;28;20489;-49
2022/08/31 00:17:17;;;;;;;4.87;4.10;;;28.20;41.60;;;;;;5075349;28;20226;-47
2022/08/31 00:19:43;;;;;;;5.53;4.80;;;28.10;41.90;;;;;;5067647;28;20192;-50
2022/08/31 00:22:08;;;;;;;5.40;4.60;;;28.20;41.90;;;;;;5069745;28;20222;-49
2022/08/31 00:24:34;;;;;;;5.27;4.20;;;28.20;41.90;;;;;;5066954;28;20890;-49
2022/08/31 00:27:00;;;;;;;4.60;4.23;;;28.20;41.50;;;;;;5069624;28;20241;-47
2022/08/31 00:29:26;;;;;;;5.10;4.60;;;28.20;41.40;;;;;;5069867;28;20681;-48
2022/08/31 00:31:51;;;;;;;5.43;4.80;;;28.20;41.50;;;;;;5071723;28;20196;-49
2022/08/31 00:34:17;;;;;;;4.33;3.93;;;28.10;41.70;;;;;;5069974;28;20224;-48
2022/08/31 00:36:46;;;;;;;5.37;4.87;;;28.20;42.00;;;;;;5070302;28;20223;-47
2022/08/31 00:39:12;;;;;;;5.10;4.70;;;28.20;41.50;;;;;;5069534;28;20678;-47
2022/08/31 00:41:38;;;;;;;5.73;5.23;;;28.20;41.90;;;;;;5069594;28;20926;-47
2022/08/31 00:44:07;;;;;;;4.40;4.00;;;28.20;41.50;;;;;;5070147;28;20450;-47
2022/08/31 00:46:37;;;;;;;4.77;4.13;;;28.20;41.80;;;;;;5067975;28;20572;-48
2022/08/31 00:49:22;;;;;;;6.03;4.27;;;28.20;42.00;;;;;;5068459;28;20972;-47
2022/08/31 00:51:58;;;;;;;4.77;4.37;;;28.20;42.30;;;;;;5068917;28;20485;-48
2022/08/31 00:54:37;;;;;;;7.10;4.60;;;28.20;42.10;;;;;;5070014;28;20481;-49
2022/08/31 00:57:05;;;;;;;6.10;5.00;;;28.30;42.10;;;;;;5068965;28;20446;-47
2022/08/31 00:59:31;;;;;;;6.63;5.10;;;28.20;41.40;;;;;;5068965;28;20491;-50
2022/08/31 01:01:57;;;;;;;9.83;4.90;;;28.20;41.10;;;;;;5069234;28;20446;-48
2022/08/31 01:04:23;;;;;;;5.83;4.73;;;27.90;41.40;;;;;;5069819;28;20445;-48
2022/08/31 01:06:50;;;;;;;5.60;4.50;;;27.60;42.20;;;;;;5068912;28;20702;-47
2022/08/31 01:09:17;;;;;;;5.20;4.70;;;27.40;42.20;;;;;;5067845;28;20212;-48
2022/08/31 01:11:43;;;;;;;6.03;4.67;;;27.10;42.70;;;;;;5068357;28;20481;-47
2022/08/31 01:14:10;;;;;;;5.80;4.70;;;27.10;43.00;;;;;;5067986;28;20521;-48
2022/08/31 01:16:46;;;;;;;5.90;4.63;;;27.10;43.70;;;;;;5067109;28;20261;-48
2022/08/31 01:19:36;;;;;;;5.20;4.70;;;27.10;44.00;;;;;;5066398;28;20936;-47
2022/08/31 01:22:12;;;;;;;5.33;4.57;;;27.20;43.70;;;;;;5069298;28;20450;-47
2022/08/31 01:24:41;;;;;;;5.73;5.00;;;27.10;43.70;;;;;;5067228;28;20518;-50
2022/08/31 01:27:07;;;;;;;7.47;5.03;;;26.90;43.90;;;;;;5070211;28;20473;-47
2022/08/31 01:29:34;;;;;;;7.07;5.10;;;26.80;44.40;;;;;;5068251;28;20432;-47
2022/08/31 01:32:00;;;;;;;5.80;4.87;;;26.60;45.70;;;;;;5070077;28;22081;-48
2022/08/31 01:34:26;;;;;;;9.20;5.37;;;26.40;46.50;;;;;;5074590;28;20484;-48
2022/08/31 01:36:52;;;;;;;5.80;4.63;;;26.40;47.00;;;;;;5068997;28;20457;-48
2022/08/31 01:39:18;;;;;;;6.20;5.17;;;26.60;46.80;;;;;;5071529;28;20187;-49
2022/08/31 01:41:44;;;;;;;4.83;4.43;;;26.60;47.40;;;;;;5072698;28;20445;-47
2022/08/31 01:44:17;;;;;;;5.47;4.97;;;26.70;47.10;;;;;;5079114;28;20457;-48
2022/08/31 01:46:43;;;;;;;6.37;4.97;;;26.80;47.70;;;;;;5071166;28;21402;-47
2022/08/31 01:49:09;;;;;;;6.57;5.93;;;26.80;48.60;;;;;;5069931;28;20606;-47
2022/08/31 01:51:35;;;;;;;5.57;5.07;;;26.80;48.90;;;;;;5069532;28;20477;-49
2022/08/31 01:54:01;;;;;;;5.53;5.03;;;26.80;48.10;;;;;;5065975;28;20691;-49
2022/08/31 01:56:37;;;;;;;5.37;4.80;;;26.90;48.50;;;;;;5063417;28;20439;-50
2022/08/31 01:59:04;;;;;;;4.93;4.53;;;27.10;48.20;;;;;;5059886;28;20754;-51
2022/08/31 02:01:34;;;;;;;6.37;5.77;;;27.10;48.50;;;;;;5073178;28;20446;-47
2022/08/31 02:04:00;;;;;;;6.17;5.60;;;27.10;48.40;;;;;;5069172;28;20477;-51
2022/08/31 02:06:26;;;;;;;5.77;5.17;;;27.10;49.50;;;;;;5066971;28;20446;-51
2022/08/31 02:08:52;;;;;;;5.57;5.17;;;27.10;50.20;;;;;;5067231;28;20491;-51
2022/08/31 02:11:17;;;;;;;6.63;6.03;;;27.00;50.60;;;;;;5067226;28;20678;-49
2022/08/31 02:13:44;;;;;;;5.63;5.17;;;26.90;50.50;;;;;;5065956;28;20264;-48
2022/08/31 02:16:10;;;;;;;6.17;5.63;;;26.90;49.80;;;;;;5065632;28;20655;-51
2022/08/31 02:18:36;;;;;;;6.00;5.40;;;27.00;50.50;;;;;;5066287;28;20435;-49
2022/08/31 02:21:02;;;;;;;8.70;5.20;;;27.00;50.20;;;;;;5068045;28;20199;-47
2022/08/31 02:23:29;;;;;;;10.03;5.60;;;27.00;50.10;;;;;;5068662;28;20192;-47
2022/08/31 02:25:54;;;;;;;7.77;5.83;;;27.00;50.10;;;;;;5067547;28;20453;-47
2022/08/31 02:28:21;;;;;;;6.70;6.10;;;27.00;51.20;;;;;;5065864;28;20446;-51
2022/08/31 02:30:47;;;;;;;5.80;5.30;;;27.00;51.50;;;;;;5068275;28;20192;-51
2022/08/31 02:33:13;;;;;;;7.10;5.57;;;27.00;51.10;;;;;;5068562;28;20434;-47
2022/08/31 02:35:40;;;;;;;6.20;5.60;;;26.90;51.80;;;;;;5067735;28;20196;-51
2022/08/31 02:38:07;;;;;;;6.47;5.87;;;27.00;52.30;;;;;;5066409;28;20982;-49
2022/08/31 02:40:37;;;;;;;6.03;5.50;;;27.00;51.40;;;;;;5065723;28;20446;-51
2022/08/31 02:43:03;;;;;;;7.00;6.40;;;27.00;51.80;;;;;;5068129;28;20438;-51
2022/08/31 02:45:29;;;;;;;5.60;5.10;;;26.90;52.10;;;;;;5067316;28;20978;-49
2022/08/31 02:47:55;;;;;;;7.03;6.20;;;26.90;52.10;;;;;;5066390;28;20442;-52
2022/08/31 02:50:20;;;;;;;5.67;5.27;;;26.80;52.00;;;;;;5068056;28;20200;-48
2022/08/31 02:52:46;;;;;;;6.50;5.80;;;26.90;51.70;;;;;;5067831;28;20632;-49
2022/08/31 02:55:13;;;;;;;6.90;5.93;;;26.90;52.60;;;;;;5066859;28;20720;-50
2022/08/31 02:57:39;;;;;;;6.47;5.87;;;26.90;52.30;;;;;;5072353;28;20444;-52
2022/08/31 03:00:06;;;;;;;6.23;5.63;;;26.90;52.40;;;;;;5072683;28;20795;-49
2022/08/31 03:02:32;;;;;;;5.90;5.40;;;26.90;52.40;;;;;;5071263;28;20192;-52
2022/08/31 03:05:00;;;;;;;7.10;6.27;;;26.80;52.50;;;;;;5072305;28;20446;-49
2022/08/31 03:07:26;;;;;;;6.70;5.70;;;26.80;52.50;;;;;;5072924;28;20447;-51
2022/08/31 03:09:52;;;;;;;6.20;5.70;;;26.80;52.80;;;;;;5070843;28;20960;-51
2022/08/31 03:12:17;;;;;;;5.83;5.33;;;26.80;52.80;;;;;;5071427;28;20203;-48
2022/08/31 03:14:43;;;;;;;7.47;6.77;;;26.80;52.30;;;;;;5066880;28;20234;-51
2022/08/31 03:17:09;;;;;;;6.50;5.90;;;26.80;52.70;;;;;;5076461;28;20291;-50
2022/08/31 03:19:34;;;;;;;5.97;5.47;;;26.80;52.60;;;;;;5068470;28;20207;-51
2022/08/31 03:22:00;;;;;;;5.03;4.63;;;26.80;52.40;;;;;;5067719;28;20215;-52
2022/08/31 03:24:26;;;;;;;6.90;5.13;;;26.80;52.80;;;;;;5070590;28;20279;-51
2022/08/31 03:26:52;;;;;;;6.00;5.50;;;26.80;52.20;;;;;;5069282;28;20609;-48
2022/08/31 03:29:18;;;;;;;7.10;5.70;;;26.90;52.00;;;;;;5070717;28;20434;-49
2022/08/31 03:31:44;;;;;;;6.03;5.30;;;27.00;52.00;;;;;;5074718;28;20196;-52
2022/08/31 03:34:10;;;;;;;6.80;5.90;;;26.90;52.00;;;;;;5072939;28;20316;-47
2022/08/31 03:36:35;;;;;;;5.83;5.20;;;27.00;52.10;;;;;;5069709;28;20497;-47
2022/08/31 03:39:01;;;;;;;7.50;5.77;;;26.90;51.90;;;;;;5068594;28;20195;-48
2022/08/31 03:41:27;;;;;;;6.27;5.77;;;27.00;52.00;;;;;;5075782;28;20572;-51
2022/08/31 03:43:53;;;;;;;6.00;5.40;;;27.00;51.90;;;;;;5068303;28;20759;-50
2022/08/31 03:46:18;;;;;;;7.90;5.50;;;27.10;51.80;;;;;;5072351;28;20215;-47
2022/08/31 03:48:48;;;;;;;5.50;5.10;;;27.00;51.80;;;;;;5072569;28;20249;-46
2022/08/31 03:51:15;;;;;;;9.40;5.60;;;27.10;52.00;;;;;;5069469;28;20203;-51
2022/08/31 03:53:40;;;;;;;6.23;5.53;;;27.10;51.90;;;;;;5071434;28;21153;-47
2022/08/31 03:56:07;;;;;;;7.13;5.57;;;27.20;51.80;;;;;;5069057;28;20461;-48
2022/08/31 03:58:34;;;;;;;6.30;5.70;;;27.10;51.70;;;;;;5069706;28;20198;-47
2022/08/31 04:01:00;;;;;;;6.50;6.00;;;27.20;51.80;;;;;;5071281;28;20813;-47
2022/08/31 04:03:26;;;;;;;6.50;5.80;;;27.20;51.80;;;;;;5068495;28;20445;-47
2022/08/31 04:05:51;;;;;;;8.00;5.53;;;27.20;51.70;;;;;;5068815;28;20442;-48
2022/08/31 04:08:18;;;;;;;5.20;4.80;;;27.10;51.80;;;;;;5063941;28;20196;-49
2022/08/31 04:10:46;;;;;;;6.17;5.40;;;27.10;51.70;;;;;;5079549;28;20207;-46
2022/08/31 04:13:12;;;;;;;5.10;4.60;;;27.10;51.90;;;;;;5071620;28;20465;-46
2022/08/31 04:15:38;;;;;;;6.17;5.67;;;27.10;51.80;;;;;;5055256;28;20505;-49
2022/08/31 04:18:04;;;;;;;5.77;5.27;;;27.10;51.90;;;;;;5078264;28;20219;-48
2022/08/31 04:20:38;;;;;;;8.43;5.63;;;27.10;51.70;;;;;;5072034;28;20780;-50
2022/08/31 04:23:05;;;;;;;5.93;5.37;;;27.20;51.70;;;;;;5070919;28;20457;-48
2022/08/31 04:25:30;;;;;;;6.10;5.60;;;27.20;51.60;;;;;;5071331;28;20481;-47
2022/08/31 04:27:56;;;;;;;5.97;5.17;;;27.20;51.70;;;;;;5069373;28;20945;-48
2022/08/31 04:30:23;;;;;;;5.87;5.37;;;27.20;51.70;;;;;;5060274;28;20698;-48
2022/08/31 04:32:50;;;;;;;6.27;5.67;;;27.20;51.60;;;;;;5065125;28;20211;-47
2022/08/31 04:35:16;;;;;;;5.60;5.20;;;27.10;51.50;;;;;;5061815;28;20845;-47
2022/08/31 04:37:41;;;;;;;6.70;6.00;;;27.10;51.50;;;;;;5067136;28;20449;-47
2022/08/31 04:40:16;;;;;;;5.70;5.03;;;27.10;51.70;;;;;;5072341;28;20464;-48
2022/08/31 04:42:43;;;;;;;5.93;5.33;;;27.00;51.80;;;;;;5065474;28;20279;-46
2022/08/31 04:45:09;;;;;;;6.83;5.50;;;27.00;51.50;;;;;;5068841;28;20498;-51
2022/08/31 04:47:35;;;;;;;6.93;5.70;;;27.00;51.50;;;;;;5069476;28;20455;-50
2022/08/31 04:50:01;;;;;;;6.40;5.80;;;27.00;51.70;;;;;;5064686;28;20470;-46
2022/08/31 04:52:28;;;;;;;6.63;6.03;;;26.80;51.80;;;;;;5065853;28;20188;-47
2022/08/31 04:54:54;;;;;;;6.20;5.60;;;26.90;51.80;;;;;;5069029;28;20516;-51
2022/08/31 04:57:19;;;;;;;6.13;5.53;;;27.00;51.60;;;;;;5068934;28;20513;-50
2022/08/31 04:59:45;;;;;;;6.50;5.90;;;27.10;51.40;;;;;;5067120;28;20517;-46
2022/08/31 05:02:10;;;;;;;6.53;5.90;;;27.10;51.30;;;;;;5070115;28;20222;-46
2022/08/31 05:04:36;;;;;;;6.07;5.50;;;27.10;51.20;;;;;;5055330;28;20203;-46
2022/08/31 05:07:02;;;;;;;6.17;5.67;;;27.00;51.40;;;;;;5069349;28;20210;-50
2022/08/31 05:09:28;;;;;;;7.83;6.47;;;26.90;51.70;;;;;;5065623;28;20195;-47
2022/08/31 05:11:54;;;;;;;6.77;6.27;;;26.80;52.30;;;;;;5066477;28;20482;-50
2022/08/31 05:14:21;;;;;;;8.23;7.00;;;26.70;52.40;;;;;;5066307;28;20232;-48
2022/08/31 05:16:47;;;;;;;8.93;7.20;;;26.60;52.60;;;;;;5067514;28;20667;-47
2022/08/31 05:19:13;;;;;;;6.80;5.83;;;26.60;52.70;;;;;;5068433;28;21349;-47
2022/08/31 05:21:40;;;;;;;7.67;6.87;;;26.60;52.70;;;;;;5062816;28;20300;-46
2022/08/31 05:24:19;;;;;;;7.90;6.00;;;26.60;52.50;;;;;;5067790;28;20570;-46
2022/08/31 05:26:48;;;;;;;6.13;5.40;;;26.70;52.50;;;;;;5067872;28;20466;-48
2022/08/31 05:29:17;;;;;;;7.33;6.23;;;26.70;52.50;;;;;;5062444;28;20994;-47
2022/08/31 05:31:43;;;;;;;7.27;6.57;;;26.60;52.60;;;;;;5068106;28;20877;-47
2022/08/31 05:34:13;;;;;;;6.10;5.50;;;26.50;52.70;;;;;;5068770;28;21001;-48
2022/08/31 05:36:41;;;;;;;6.10;5.50;;;26.50;52.80;;;;;;5069015;28;20960;-50
2022/08/31 05:39:10;;;;;;;6.60;6.10;;;26.50;52.80;;;;;;5067696;28;20453;-49
2022/08/31 05:41:37;;;;;;;7.30;6.60;;;26.50;52.80;;;;;;5068781;28;20458;-46
2022/08/31 05:44:04;;;;;;;6.13;5.63;;;26.50;52.80;;;;;;5069159;28;20442;-48
2022/08/31 05:46:30;;;;;;;6.70;6.10;;;26.50;52.80;;;;;;5068555;28;20458;-49
2022/08/31 05:48:55;;;;;;;6.20;5.60;;;26.50;52.80;;;;;;5070330;28;21121;-48
2022/08/31 05:51:21;;;;;;;6.80;6.10;;;26.50;52.80;;;;;;5068168;28;20453;-48
2022/08/31 05:53:47;;;;;;;7.13;6.63;;;26.40;52.90;;;;;;5069602;28;20222;-47
2022/08/31 05:56:18;;;;;;;7.10;6.50;;;26.50;53.00;;;;;;5065230;28;20438;-50
2022/08/31 05:58:44;;;;;;;7.67;6.97;;;26.50;53.10;;;;;;5069407;28;20929;-49
2022/08/31 06:01:16;;;;;;;8.70;7.20;;;26.40;53.30;;;;;;5065569;28;20453;-47
2022/08/31 06:03:42;;;;;;;7.53;6.70;;;26.40;53.40;;;;;;5067977;28;20460;-47
2022/08/31 06:06:08;;;;;;;7.13;6.50;;;26.40;53.50;;;;;;5074664;28;20527;-47
2022/08/31 06:08:35;;;;;;;7.60;6.80;;;26.40;53.60;;;;;;5069471;28;20549;-49
2022/08/31 06:11:02;;;;;;;8.00;6.77;;;26.40;53.70;;;;;;5069347;28;20438;-47
2022/08/31 06:13:28;;;;;;;10.90;6.93;;;26.30;53.90;;;;;;5075555;28;20468;-49
2022/08/31 06:15:56;;;;;;;7.43;6.53;;;26.30;54.00;;;;;;5071475;28;20446;-50
2022/08/31 06:18:22;;;;;;;7.67;6.60;;;26.30;54.10;;;;;;5069475;28;20443;-47
2022/08/31 06:20:48;;;;;;;7.77;7.00;;;26.30;54.10;;;;;;5067833;28;20446;-47
2022/08/31 06:23:15;;;;;;;7.73;6.50;;;26.30;54.10;;;;;;5069057;28;20191;-47
2022/08/31 06:25:41;;;;;;;8.50;7.53;;;26.30;54.10;;;;;;5065531;28;20434;-48
2022/08/31 06:28:13;;;;;;;8.40;7.50;;;26.30;54.20;;;;;;5066009;28;20965;-48
2022/08/31 06:30:39;;;;;;;8.23;7.20;;;26.20;54.40;;;;;;5070975;28;20779;-47
2022/08/31 06:33:06;;;;;;;7.50;6.80;;;26.20;54.40;;;;;;5073223;28;20441;-50
2022/08/31 06:35:32;;;;;;;8.47;5.90;;;26.20;54.40;;;;;;5084725;28;20231;-49
2022/08/31 06:37:58;;;;;;;10.50;6.77;;;26.20;54.40;;;;;;5079476;28;20457;-50
2022/08/31 06:40:28;;;;;;;7.57;6.73;;;26.20;54.50;;;;;;5069840;28;20961;-50
2022/08/31 06:42:54;;;;;;;9.10;6.77;;;26.20;54.50;;;;;;5064850;28;20208;-46
2022/08/31 06:45:20;;;;;;;7.20;6.60;;;26.20;54.60;;;;;;5077094;28;20437;-49
2022/08/31 06:47:46;;;;;;;7.80;7.17;;;26.10;54.70;;;;;;5073084;28;20223;-47
2022/08/31 06:50:12;;;;;;;7.43;6.73;;;26.10;54.80;;;;;;5072753;28;20560;-48
2022/08/31 06:52:38;;;;;;;8.63;7.07;;;26.10;54.70;;;;;;5072547;28;20796;-49
2022/08/31 06:55:04;;;;;;;7.40;6.50;;;26.10;54.60;;;;;;5070789;28;20513;-48
2022/08/31 06:57:29;;;;;;;7.87;6.40;;;26.10;54.60;;;;;;5073455;28;20199;-49
2022/08/31 06:59:55;;;;;;;9.67;6.90;;;26.10;54.60;;;;;;5072984;28;20465;-46
2022/08/31 07:02:20;;;;;;;7.80;6.87;;;26.20;54.70;;;;;;5073890;28;20230;-47
2022/08/31 07:04:46;;;;;;;7.33;6.63;;;26.20;54.50;;;;;;5072111;28;20196;-47
2022/08/31 07:07:11;;;;;;;7.93;6.70;;;26.10;54.60;;;;;;5076844;28;20285;-47
2022/08/31 07:09:39;;;;;;;7.07;6.47;;;26.00;54.60;;;;;;5072849;28;20196;-48
2022/08/31 07:12:06;;;;;;;7.90;7.10;;;26.00;54.70;;;;;;5073475;28;20196;-47
2022/08/31 07:14:32;;;;;;;7.50;6.87;;;26.00;54.70;;;;;;5072703;28;20519;-47
2022/08/31 07:17:01;;;;;;;8.83;6.47;;;26.00;54.50;;;;;;5072214;28;20537;-47
2022/08/31 07:19:27;;;;;;;7.17;6.47;;;26.00;54.30;;;;;;5081847;28;20441;-47
2022/08/31 07:21:56;;;;;;;6.97;6.27;;;26.00;54.30;;;;;;5071533;28;20865;-49
2022/08/31 07:24:27;;;;;;;7.80;5.90;;;26.00;54.00;;;;;;5072769;28;20455;-47
2022/08/31 07:26:59;;;;;;;7.07;6.30;;;26.00;53.60;;;;;;5070480;28;20963;-48
2022/08/31 07:29:29;;;;;;;7.13;6.40;;;25.90;53.30;;;;;;5067679;28;20442;-47
2022/08/31 07:31:56;;;;;;;7.00;6.27;;;26.00;53.30;;;;;;5073002;28;20434;-46
2022/08/31 07:34:28;;;;;;;6.07;5.57;;;25.90;53.10;;;;;;5070784;28;20497;-49
2022/08/31 07:42:28;;;;;;;6.40;5.80;;;25.90;52.50;;;;;;5070643;28;20466;-49
2022/08/31 07:44:57;;;;;;;7.17;5.57;;;25.90;51.90;;;;;;5071423;28;20491;-47
2022/08/31 07:47:24;;;;;;;6.37;5.77;;;25.90;51.00;;;;;;5070436;28;20572;-50
2022/08/31 07:49:52;;;;;;;5.97;5.33;;;25.90;50.70;;;;;;5070457;28;20511;-49
2022/08/31 07:52:22;;;;;;;5.90;5.30;;;26.00;50.30;;;;;;5066480;28;20574;-47
2022/08/31 07:54:49;;;;;;;5.37;4.90;;;26.00;50.00;;;;;;5067594;28;20531;-46
2022/08/31 07:57:15;;;;;;;5.33;4.90;;;26.00;49.40;;;;;;5059960;28;20434;-50
2022/08/31 07:59:40;;;;;;;5.80;4.70;;;26.10;49.10;;;;;;5063742;28;20461;-47
2022/08/31 08:02:07;;;;;;;9.80;5.03;;;26.00;48.40;;;;;;5068215;28;20202;-50
2022/08/31 08:04:37;;;;;;;5.50;5.00;;;26.00;48.10;;;;;;5067466;28;20196;-47
2022/08/31 08:07:04;;;;;;;5.03;4.60;;;26.00;48.20;;;;;;5066870;28;20495;-49
2022/08/31 08:09:31;;;;;;;6.70;4.87;;;26.00;48.40;;;;;;5060155;28;20454;-48
2022/08/31 08:12:03;;;;;;;5.47;4.97;;;26.10;48.30;;;;;;5071657;28;21114;-49
2022/08/31 08:14:29;;;;;;;7.73;5.23;;;26.10;48.60;;;;;;5070272;28;20611;-48
2022/08/31 08:16:55;;;;;;;4.87;4.47;;;26.10;48.50;;;;;;5067223;28;20446;-49
2022/08/31 08:19:22;;;;;;;5.70;4.70;;;26.10;48.30;;;;;;5065916;28;20203;-48
2022/08/31 08:21:47;;;;;;;6.87;4.90;;;26.20;48.20;;;;;;5064707;28;20586;-48
2022/08/31 08:24:14;;;;;;;5.57;5.07;;;26.20;48.40;;;;;;5068375;28;20443;-50
2022/08/31 08:26:48;;;;;;;9.60;6.03;;;26.30;48.30;;;;;;5074693;28;20218;-49
2022/08/31 08:29:14;;;;;;;6.07;5.27;;;26.30;48.20;;;;;;5067589;28;20462;-50
2022/08/31 08:31:41;;;;;;;6.33;5.30;;;26.30;48.00;;;;;;5068236;28;20786;-48
2022/08/31 08:34:07;;;;;;;7.90;4.63;;;26.30;47.80;;;;;;5068752;28;20477;-51
2022/08/31 08:36:39;;;;;;;8.63;5.37;;;26.20;47.50;;;;;;5068071;28;20442;-48
2022/08/31 08:39:07;;;;;;;10.37;5.50;;;26.20;47.70;;;;;;5067291;28;20851;-47
2022/08/31 08:41:36;;;;;;;5.90;5.40;;;26.20;47.60;;;;;;5068987;28;20454;-49
2022/08/31 08:44:08;;;;;;;7.90;6.13;;;26.20;47.50;;;;;;5067014;28;20446;-48
2022/08/31 08:46:42;;;;;;;7.00;5.20;;;26.20;47.70;;;;;;5065130;28;20434;-51
2022/08/31 08:49:27;;;;;;;5.07;4.57;;;26.10;47.80;;;;;;5068483;28;20532;-51
2022/08/31 08:52:05;;;;;;;4.70;4.30;;;26.10;48.00;;;;;;5069238;28;20877;-49
2022/08/31 08:54:34;;;;;;;7.93;5.23;;;26.10;48.50;;;;;;5068093;28;20489;-52
2022/08/31 08:57:06;;;;;;;6.47;5.87;;;26.20;48.40;;;;;;5060401;28;20886;-52
2022/08/31 08:59:32;;;;;;;5.20;4.40;;;26.30;48.00;;;;;;5064923;28;20454;-52
2022/08/31 09:02:03;;;;;;;5.97;5.47;;;26.30;47.80;;;;;;5067849;28;20462;-51
2022/08/31 09:04:44;;;;;;;6.60;4.90;;;26.40;47.60;;;;;;5063624;28;20196;-52
2022/08/31 09:07:35;;;;;;;5.63;5.00;;;26.40;47.50;;;;;;5069335;28;20873;-52
2022/08/31 09:10:35;;;;;;;6.60;5.30;;;26.40;47.30;;;;;;5068727;28;20469;-51
2022/08/31 09:13:35;;;;;;;7.27;5.43;;;26.40;47.40;;;;;;5069669;28;20553;-50
2022/08/31 09:16:03;;;;;;;10.87;6.40;;;26.50;47.50;;;;;;5066229;28;20454;-51
2022/08/31 09:18:55;;;;;;;6.47;5.30;;;26.50;47.50;;;;;;5069310;28;20551;-47
2022/08/31 09:21:28;;;;;;;6.43;5.50;;;26.50;47.50;;;;;;5065936;28;20458;-49
2022/08/31 09:24:00;;;;;;;6.47;5.80;;;26.60;47.60;;;;;;5068893;28;20454;-50
2022/08/31 09:26:26;;;;;;;5.33;4.93;;;26.40;46.80;;;;;;5068615;28;20450;-51
2022/08/31 09:28:52;;;;;;;6.13;5.53;;;26.40;47.10;;;;;;5064821;28;20941;-50
2022/08/31 09:31:33;;;;;;;6.57;5.60;;;26.40;47.30;;;;;;5068445;28;20446;-48
2022/08/31 09:33:59;;;;;;;5.60;5.13;;;26.40;47.40;;;;;;5067495;28;20949;-51
2022/08/31 09:36:32;;;;;;;6.47;5.87;;;26.20;47.50;;;;;;5069787;28;20433;-48
2022/08/31 09:39:15;;;;;;;6.77;5.63;;;26.20;47.70;;;;;;5066962;28;20820;-49
2022/08/31 09:41:41;;;;;;;8.37;5.90;;;26.20;48.10;;;;;;5078617;28;20425;-47
2022/08/31 09:44:33;;;;;;;6.93;5.77;;;26.20;48.00;;;;;;5063945;28;20462;-51
2022/08/31 09:47:03;;;;;;;6.10;5.60;;;26.30;47.70;;;;;;5065674;28;20450;-49
2022/08/31 09:49:35;;;;;;;9.20;5.80;;;26.30;47.70;;;;;;5066062;28;20438;-48
2022/08/31 09:55:12;;;;;;;5.97;5.47;;;26.40;47.60;;;;;;5068486;28;20442;-48
2022/08/31 09:55:12;;;;;;;6.23;5.57;;;26.50;47.40;;;;;;5059663;28;20482;-47
2022/08/31 09:57:49;;;;;;;7.93;5.80;;;26.60;47.20;;;;;;5067666;28;20442;-48
2022/08/31 10:00:24;;;;;;;10.33;5.83;;;26.50;47.60;;;;;;5067359;28;20458;-49
2022/08/31 10:02:56;;;;;;;6.23;5.67;;;26.60;47.60;;;;;;5066686;28;20445;-47
2022/08/31 10:05:42;;;;;;;6.73;6.00;;;26.70;47.40;;;;;;5065076;28;20473;-49
2022/08/31 10:08:41;;;;;;;9.93;5.67;;;26.70;47.10;;;;;;5064478;28;20446;-51
2022/08/31 10:11:32;;;;;;;7.13;5.20;;;26.70;47.20;;;;;;5065461;28;20461;-47
2022/08/31 10:14:18;;;;;;;6.53;5.93;;;26.70;47.20;;;;;;5067988;28;21265;-50
2022/08/31 10:17:03;;;;;;;6.63;6.13;;;26.80;47.10;;;;;;5066782;28;20466;-50
2022/08/31 10:22:55;;;;;;;8.07;5.53;;;26.90;47.10;;;;;;5063911;28;20451;-48
2022/08/31 10:25:40;;;;;;;6.23;5.50;;;26.80;46.80;;;;;;5067768;28;20433;-48
2022/08/31 10:28:10;;;;;;;6.27;5.53;;;26.90;47.00;;;;;;5067646;28;20845;-50
2022/08/31 10:30:44;;;;;;;7.13;5.80;;;27.00;46.60;;;;;;5078829;28;20453;-51
2022/08/31 10:33:18;;;;;;;8.60;7.40;;;27.10;46.30;;;;;;5069109;28;20442;-50
2022/08/31 10:35:53;;;;;;;7.47;5.40;;;27.10;46.00;;;;;;5066945;28;20482;-49
2022/08/31 10:38:34;;;;;;;6.53;5.93;;;27.20;46.20;;;;;;5075780;28;20450;-50
2022/08/31 10:41:16;;;;;;;7.20;6.00;;;27.20;46.20;;;;;;5068291;28;20434;-49
2022/08/31 10:43:52;;;;;;;9.07;5.87;;;27.10;46.50;;;;;;5068131;28;20952;-50
2022/08/31 10:46:19;;;;;;;6.07;5.53;;;27.20;46.40;;;;;;5067113;28;20450;-50
2022/08/31 10:48:45;;;;;;;6.63;6.03;;;27.10;46.40;;;;;;5063902;28;20444;-50
2022/08/31 10:51:25;;;;;;;6.63;5.80;;;27.00;46.60;;;;;;5059706;28;20430;-50
2022/08/31 10:54:11;;;;;;;6.67;5.80;;;27.00;46.90;;;;;;5056518;28;20854;-48
2022/08/31 10:56:49;;;;;;;6.73;5.80;;;27.00;47.10;;;;;;5064304;28;21014;-47
2022/08/31 10:59:18;;;;;;;5.87;5.37;;;27.00;47.10;;;;;;5068185;28;20456;-50
2022/08/31 11:01:55;;;;;;;7.07;5.83;;;27.10;46.80;;;;;;5069278;28;21287;-48
2022/08/31 11:04:38;;;;;;;7.20;5.73;;;27.10;47.10;;;;;;5067928;28;20445;-50
2022/08/31 11:07:42;;;;;;;8.00;6.20;;;27.10;48.90;;;;;;5065113;28;20450;-50
2022/08/31 11:10:32;;;;;;;6.97;6.27;;;27.10;51.10;;;;;;5064330;28;20454;-50
2022/08/31 11:13:06;;;;;;;7.60;6.90;;;27.00;50.80;;;;;;5066751;28;20937;-50
2022/08/31 11:15:34;;;;;;;7.10;5.90;;;27.00;51.10;;;;;;5067005;28;20515;-49
2022/08/31 11:18:17;;;;;;;7.03;6.33;;;26.90;51.10;;;;;;5071733;28;20837;-47
2022/08/31 11:21:02;;;;;;;8.27;7.43;;;26.90;50.80;;;;;;5065018;28;21219;-48
2022/08/31 11:23:33;;;;;;;8.30;6.90;;;26.90;50.50;;;;;;5069802;28;22421;-47
2022/08/31 11:26:32;;;;;;;8.20;7.40;;;26.90;51.00;;;;;;5072208;28;20571;-47
2022/08/31 11:29:12;;;;;;;7.93;7.00;;;26.80;50.90;;;;;;5069271;28;20487;-51
2022/08/31 11:31:39;;;;;;;7.53;6.23;;;26.80;51.20;;;;;;5069744;28;20452;-50
2022/08/31 11:34:24;;;;;;;7.00;6.30;;;26.90;51.50;;;;;;5073251;28;20461;-47
2022/08/31 11:36:59;;;;;;;7.90;6.40;;;26.90;51.50;;;;;;5072388;28;20503;-51
2022/08/31 11:39:34;;;;;;;8.40;7.40;;;27.00;51.50;;;;;;5065533;28;20541;-52
2022/08/31 11:42:17;;;;;;;7.17;6.60;;;27.00;51.20;;;;;;5067835;28;20483;-48
2022/08/31 11:44:47;;;;;;;8.80;7.00;;;27.00;51.40;;;;;;5064811;28;20438;-50
2022/08/31 11:47:27;;;;;;;7.33;6.63;;;27.00;51.40;;;;;;5063088;28;20450;-50
2022/08/31 11:50:04;;;;;;;7.07;6.37;;;27.00;51.00;;;;;;5066542;28;20445;-50
2022/08/31 11:52:37;;;;;;;13.70;7.70;;;26.90;51.10;;;;;;5066825;28;20454;-50
2022/08/31 11:55:20;;;;;;;9.00;7.40;;;26.90;51.10;;;;;;5071936;28;20901;-51
2022/08/31 11:58:05;;;;;;;7.27;6.67;;;26.80;50.70;;;;;;5071226;28;20944;-50
2022/08/31 12:00:57;;;;;;;9.07;7.23;;;26.80;50.80;;;;;;5073201;28;20481;-51
2022/08/31 12:03:37;;;;;;;8.27;7.33;;;26.80;50.90;;;;;;5070528;28;20988;-49
2022/08/31 12:06:06;;;;;;;11.40;8.40;;;26.70;50.90;;;;;;5078592;28;20434;-50
2022/08/31 12:08:51;;;;;;;7.30;6.60;;;26.70;50.90;;;;;;5069936;28;20445;-50
2022/08/31 12:11:40;;;;;;;7.73;7.00;;;26.70;50.90;;;;;;5068350;28;20484;-51
2022/08/31 12:14:26;;;;;;;6.87;6.33;;;26.70;50.80;;;;;;5069812;28;20844;-50
2022/08/31 12:17:12;;;;;;;7.47;6.77;;;26.80;50.90;;;;;;5062463;28;20526;-49
2022/08/31 12:19:59;;;;;;;8.13;7.33;;;26.80;51.00;;;;;;5067867;28;20446;-49
2022/08/31 12:25:34;;;;;;;6.63;5.80;;;26.80;51.10;;;;;;5068351;28;20445;-49
2022/08/31 12:28:31;;;;;;;10.20;6.63;;;26.80;50.90;;;;;;5068187;28;20456;-50
2022/08/31 12:31:03;;;;;;;8.07;7.37;;;26.80;50.80;;;;;;5068566;28;20545;-49
2022/08/31 12:33:30;;;;;;;9.40;8.60;;;26.80;49.90;;;;;;5064189;28;20531;-50
2022/08/31 12:36:18;;;;;;;8.50;7.70;;;26.80;49.80;;;;;;5068680;28;21035;-51
2022/08/31 12:38:44;;;;;;;18.43;16.67;;;27.00;50.00;;;;;;5071383;28;20441;-49
2022/08/31 12:41:12;;;;;;;12.10;11.10;;;27.00;49.60;;;;;;5069457;28;20449;-48
2022/08/31 12:43:40;;;;;;;9.33;7.30;;;27.10;49.60;;;;;;5071490;28;20187;-51
2022/08/31 12:46:24;;;;;;;14.83;8.73;;;27.30;49.00;;;;;;5074825;28;20442;-49
2022/08/31 12:49:20;;;;;;;9.73;8.83;;;27.40;49.30;;;;;;5076833;28;20466;-49
2022/08/31 12:52:01;;;;;;;9.23;7.60;;;27.60;48.80;;;;;;5063913;28;20458;-48
2022/08/31 12:55:31;;;;;;;11.00;8.40;;;27.60;48.10;;;;;;5070076;28;20492;-48
2022/08/31 12:58:25;;;;;;;9.23;8.33;;;27.70;47.80;;;;;;5045388;28;20954;-48
2022/08/31 13:00:51;;;;;;;7.93;7.23;;;27.80;48.30;;;;;;5031880;28;20496;-49
2022/08/31 13:03:30;;;;;;;7.90;7.10;;;28.00;47.80;;;;;;5056651;28;20807;-50
2022/08/31 13:06:12;;;;;;;7.77;7.07;;;27.90;47.50;;;;;;5068246;28;20245;-50
2022/08/31 13:08:46;;;;;;;7.13;6.43;;;28.00;47.30;;;;;;5097537;28;20548;-49
2022/08/31 13:11:24;;;;;;;7.50;6.77;;;28.20;47.70;;;;;;5068813;28;20450;-50
2022/08/31 13:13:52;;;;;;;9.60;7.33;;;28.50;47.30;;;;;;5069250;28;20899;-50
2022/08/31 13:16:19;;;;;;;9.90;8.03;;;28.70;46.70;;;;;;5069537;28;20442;-47
2022/08/31 13:18:45;;;;;;;8.87;8.07;;;28.70;45.30;;;;;;5066394;28;20454;-49
2022/08/31 13:21:18;;;;;;;8.20;7.53;;;28.70;45.20;;;;;;5062858;28;20487;-49